Time;durP1;ratioP1;P1;durP2;ratioP2;P2;SDS_P1;SDS_P2;PMS_P1;PMS_P2;Temp;Humidity;BMP_temperature;BMP_pressure;BME280_temperature;BME280_humidity;BME280_pressure;Samples;Min_cycle;Max_cycle;Signal;HPM_P1;HPM_P2
2022/08/25 00:01:00;;;;;;;20.67;17.60;;;;;;;22.61;100.00;101682.50;5053645;28;20017;-73
2022/08/25 00:03:25;;;;;;;22.75;18.73;;;;;;;22.60;100.00;101679.84;5035929;28;20056;-74
2022/08/25 00:05:51;;;;;;;22.85;19.33;;;;;;;22.56;100.00;101676.38;5038637;28;20460;-74
2022/08/25 00:08:16;;;;;;;24.45;19.52;;;;;;;22.51;100.00;101679.13;5042860;28;20111;-73
2022/08/25 00:10:42;;;;;;;24.10;19.85;;;;;;;22.49;100.00;101675.59;5047300;28;20513;-73
2022/08/25 00:13:08;;;;;;;24.75;19.20;;;;;;;22.47;100.00;101672.06;5054236;28;20033;-74
2022/08/25 00:15:33;;;;;;;24.98;20.42;;;;;;;22.46;100.00;101672.97;5054626;28;20033;-74
2022/08/25 00:17:59;;;;;;;23.40;19.58;;;;;;;22.44;100.00;101671.25;5054391;28;20112;-73
2022/08/25 00:20:27;;;;;;;24.50;20.10;;;;;;;22.40;100.00;101665.94;5052716;28;20028;-74
2022/08/25 00:22:52;;;;;;;25.20;20.85;;;;;;;22.38;100.00;101664.19;5039963;28;20476;-74
2022/08/25 00:25:18;;;;;;;25.80;20.80;;;;;;;22.36;100.00;101661.53;5045549;28;20028;-73
2022/08/25 00:27:44;;;;;;;27.52;20.17;;;;;;;22.33;100.00;101671.44;5038241;28;20032;-75
2022/08/25 00:30:13;;;;;;;29.88;20.70;;;;;;;22.29;100.00;101672.38;5039709;28;20036;-74
2022/08/25 00:32:38;;;;;;;24.88;21.02;;;;;;;22.29;100.00;101669.69;5045324;28;20052;-73
2022/08/25 00:35:05;;;;;;;25.80;21.60;;;;;;;22.30;100.00;101664.31;5045143;28;20025;-73
2022/08/25 00:37:30;;;;;;;27.27;20.88;;;;;;;22.29;100.00;101658.97;5045688;28;20121;-73
2022/08/25 00:39:57;;;;;;;29.88;20.60;;;;;;;22.27;100.00;101658.13;5049877;28;20108;-73
2022/08/25 00:42:24;;;;;;;25.40;20.23;;;;;;;22.27;100.00;101658.13;5053576;28;20025;-73
2022/08/25 00:44:49;;;;;;;27.92;20.80;;;;;;;22.26;100.00;101659.94;5050791;28;20103;-74
2022/08/25 00:47:15;;;;;;;24.77;21.73;;;;;;;22.24;100.00;101656.38;5037321;28;20068;-73
2022/08/25 00:49:57;;;;;;;25.33;21.15;;;;;;;22.20;100.00;101650.19;5041600;28;20476;-74
2022/08/25 00:52:28;;;;;;;22.60;20.20;;;;;;;22.20;100.00;101652.88;5037088;28;20026;-73
2022/08/25 00:55:05;;;;;;;25.13;21.02;;;;;;;22.14;100.00;101653.00;5045378;28;20481;-73
2022/08/25 00:57:39;;;;;;;25.70;22.48;;;;;;;22.10;100.00;101653.97;5052626;28;20124;-73
2022/08/25 01:00:36;;;;;;;27.48;23.27;;;;;;;22.10;100.00;101645.94;5050970;28;20037;-73
2022/08/25 01:03:01;;;;;;;28.08;22.88;;;;;;;22.12;100.00;101644.09;5051426;28;20032;-73
2022/08/25 01:05:28;;;;;;;24.65;21.67;;;;;;;22.16;100.00;101645.78;5041862;28;20083;-73
2022/08/25 01:07:56;;;;;;;28.67;22.42;;;;;;;22.15;100.00;101652.09;5048479;28;20404;-73
2022/08/25 01:10:23;;;;;;;26.05;22.17;;;;;;;22.14;100.00;101650.31;5049315;28;20032;-74
2022/08/25 01:12:51;;;;;;;28.48;23.13;;;;;;;22.15;100.00;101645.81;5051277;28;20029;-74
2022/08/25 01:15:16;;;;;;;26.02;22.83;;;;;;;22.15;100.00;101644.06;5041636;28;20024;-74
2022/08/25 01:17:51;;;;;;;27.80;22.48;;;;;;;22.09;100.00;101641.47;5041147;28;20507;-73
2022/08/25 01:20:19;;;;;;;25.83;22.75;;;;;;;22.07;100.00;101632.59;5037497;28;20040;-74
2022/08/25 01:22:45;;;;;;;30.95;24.65;;;;;;;22.05;100.00;101629.91;5034500;28;20067;-74
2022/08/25 01:25:23;;;;;;;30.02;23.23;;;;;;;22.05;100.00;101629.03;5037548;28;20107;-74
2022/08/25 01:27:49;;;;;;;28.23;23.95;;;;;;;22.00;100.00;101630.91;5034379;28;20048;-74
2022/08/25 01:30:15;;;;;;;26.50;22.95;;;;;;;21.96;100.00;101621.16;5040326;28;20037;-73
2022/08/25 01:32:40;;;;;;;27.25;23.73;;;;;;;21.95;100.00;101628.34;5036632;28;20059;-74
2022/08/25 01:35:06;;;;;;;27.60;24.23;;;;;;;21.88;100.00;101624.88;5048411;28;20037;-74
2022/08/25 01:37:34;;;;;;;35.95;25.23;;;;;;;21.82;100.00;101616.94;5034498;28;20037;-74
2022/08/25 01:39:59;;;;;;;27.10;23.63;;;;;;;21.80;100.00;101620.56;5041602;28;20024;-73
2022/08/25 01:42:41;;;;;;;32.33;22.67;;;;;;;21.76;100.00;101614.38;5052723;28;20033;-73
2022/08/25 01:45:09;;;;;;;28.30;23.98;;;;;;;21.76;100.00;101611.72;5047074;28;20056;-74
2022/08/25 01:47:36;;;;;;;33.28;24.83;;;;;;;21.73;100.00;101611.75;5045311;28;20107;-75
2022/08/25 01:50:02;;;;;;;27.75;22.90;;;;;;;21.71;100.00;101616.25;5046746;28;20029;-74
2022/08/25 01:52:36;;;;;;;27.67;21.80;;;;;;;21.69;100.00;101620.75;5048704;28;20033;-73
2022/08/25 01:55:03;;;;;;;28.42;22.98;;;;;;;21.66;100.00;101610.09;5035929;28;20124;-73
2022/08/25 01:57:30;;;;;;;25.60;22.23;;;;;;;21.65;100.00;101608.31;5036359;28;20025;-73
2022/08/25 01:59:56;;;;;;;28.40;21.63;;;;;;;21.63;100.00;101607.47;5040304;28;20039;-75
2022/08/25 02:02:22;;;;;;;27.75;20.90;;;;;;;21.61;100.00;101606.59;5040958;28;20477;-73
2022/08/25 02:04:47;;;;;;;27.40;22.05;;;;;;;21.60;100.00;101611.09;5048578;28;20035;-73
2022/08/25 02:07:12;;;;;;;24.95;22.25;;;;;;;21.59;100.00;101613.81;5039096;28;20120;-74
2022/08/25 02:09:39;;;;;;;25.25;21.80;;;;;;;21.56;100.00;101610.25;5050062;28;20116;-72
2022/08/25 02:12:05;;;;;;;24.05;21.50;;;;;;;21.53;100.00;101612.13;5047683;28;20032;-73
2022/08/25 02:14:30;;;;;;;24.08;20.83;;;;;;;21.49;100.00;101605.88;5034705;28;20444;-74
2022/08/25 02:16:56;;;;;;;25.05;21.38;;;;;;;21.47;100.00;101610.38;5037405;28;20029;-73
2022/08/25 02:19:23;;;;;;;28.33;21.02;;;;;;;21.47;100.00;101607.69;5040190;28;20025;-74
2022/08/25 02:21:49;;;;;;;22.15;19.85;;;;;;;21.46;100.00;101608.63;5033506;28;20074;-73
2022/08/25 02:24:14;;;;;;;24.42;20.05;;;;;;;21.48;100.00;101606.78;5034443;28;20029;-73
2022/08/25 02:26:40;;;;;;;22.40;19.95;;;;;;;21.48;100.00;101601.44;5057218;28;20029;-74
2022/08/25 02:29:06;;;;;;;24.88;19.50;;;;;;;21.49;100.00;101591.63;5040951;28;20032;-73
2022/08/25 02:31:33;;;;;;;25.88;19.50;;;;;;;21.47;100.00;101594.31;5041524;28;20033;-73
2022/08/25 02:33:58;;;;;;;24.20;20.15;;;;;;;21.46;100.00;101595.22;5050196;28;20029;-73
2022/08/25 02:36:24;;;;;;;26.83;19.63;;;;;;;21.46;100.00;101589.88;5040079;28;20040;-73
2022/08/25 02:38:50;;;;;;;21.58;19.05;;;;;;;21.44;100.00;101588.13;5038612;28;20021;-73
2022/08/25 02:41:18;;;;;;;25.35;20.30;;;;;;;21.42;100.00;101585.50;5055005;28;20036;-73
2022/08/25 02:43:47;;;;;;;25.20;19.20;;;;;;;21.39;100.00;101589.09;5045662;28;20100;-73
2022/08/25 02:46:14;;;;;;;28.25;21.33;;;;;;;21.38;100.00;101584.63;5040630;28;20064;-73
2022/08/25 02:48:40;;;;;;;27.45;20.40;;;;;;;21.36;100.00;101578.41;5043580;28;20056;-73
2022/08/25 02:51:07;;;;;;;22.25;19.15;;;;;;;21.34;100.00;101582.06;5055531;28;20036;-74
2022/08/25 02:53:33;;;;;;;22.83;19.52;;;;;;;21.30;100.00;101575.84;5043302;28;20025;-73
2022/08/25 02:55:59;;;;;;;23.25;19.02;;;;;;;21.27;100.00;101573.25;5051707;28;20079;-72
2022/08/25 02:58:24;;;;;;;25.63;20.13;;;;;;;21.25;100.00;101569.69;5056394;28;20460;-73
2022/08/25 03:00:51;;;;;;;23.08;19.33;;;;;;;21.22;100.00;101573.28;5054922;28;20056;-73
2022/08/25 03:03:17;;;;;;;21.77;18.60;;;;;;;21.20;100.00;101568.88;5054869;28;20021;-73
2022/08/25 03:05:43;;;;;;;23.17;20.02;;;;;;;21.16;100.00;101562.69;5055881;28;20397;-74
2022/08/25 03:08:09;;;;;;;23.75;18.52;;;;;;;21.15;100.00;101560.94;5045731;28;20049;-73
2022/08/25 03:10:35;;;;;;;21.77;19.45;;;;;;;21.12;100.00;101555.63;5049363;28;20112;-73
2022/08/25 03:13:01;;;;;;;22.35;18.63;;;;;;;21.08;100.00;101559.28;5048633;28;20040;-72
2022/08/25 03:15:26;;;;;;;21.60;18.92;;;;;;;21.04;100.00;101552.19;5055813;28;20021;-74
2022/08/25 03:17:53;;;;;;;21.77;19.38;;;;;;;21.01;100.00;101553.13;5056546;28;20040;-73
2022/08/25 03:20:20;;;;;;;23.77;17.88;;;;;;;20.96;100.00;101549.63;5052855;28;20362;-73
2022/08/25 03:22:47;;;;;;;29.92;19.85;;;;;;;20.94;100.00;101550.56;5056069;28;20021;-73
2022/08/25 03:27:57;;;;;;;26.27;19.55;;;;;;;20.90;100.00;101544.34;5052504;28;20036;-73
2022/08/25 03:30:22;;;;;;;23.83;18.27;;;;;;;20.87;100.00;101545.28;5048618;28;20029;-73
2022/08/25 03:32:48;;;;;;;22.33;18.90;;;;;;;20.83;100.00;101537.34;5037503;28;20033;-73
2022/08/25 03:35:13;;;;;;;22.88;18.73;;;;;;;20.77;100.00;101532.06;5042133;28;20021;-73
2022/08/25 03:37:39;;;;;;;23.25;18.60;;;;;;;20.72;100.00;101524.13;5056127;28;20587;-74
2022/08/25 03:40:08;;;;;;;22.67;19.48;;;;;;;20.67;100.00;101523.28;5053009;28;20063;-73
2022/08/25 03:42:34;;;;;;;22.67;18.05;;;;;;;20.63;100.00;101525.13;5051389;28;20032;-73
2022/08/25 03:45:03;;;;;;;22.88;18.27;;;;;;;20.62;100.00;101510.00;5037822;28;20029;-72
2022/08/25 03:47:29;;;;;;;25.27;18.55;;;;;;;20.61;100.00;101515.38;5038029;28;20522;-73
2022/08/25 03:49:55;;;;;;;27.02;18.35;;;;;;;20.61;100.00;101510.00;5037586;28;20107;-73
2022/08/25 03:52:20;;;;;;;19.92;17.77;;;;;;;20.60;100.00;101505.56;5049335;28;20485;-73
2022/08/25 03:54:46;;;;;;;22.02;18.13;;;;;;;20.58;100.00;101502.00;5040420;28;20029;-73
2022/08/25 03:57:11;;;;;;;22.25;19.00;;;;;;;20.54;100.00;101502.06;5053824;28;20033;-74
2022/08/25 03:59:37;;;;;;;33.50;18.27;;;;;;;20.53;100.00;101508.31;5040186;28;20032;-74
2022/08/25 04:02:04;;;;;;;19.75;17.13;;;;;;;20.51;100.00;101496.78;5053185;28;20028;-74
2022/08/25 04:04:29;;;;;;;22.48;17.75;;;;;;;20.54;100.00;101504.75;5055669;28;20032;-73
2022/08/25 04:06:56;;;;;;;21.33;16.90;;;;;;;20.54;100.00;101504.75;5035606;28;20022;-74
2022/08/25 04:09:21;;;;;;;19.92;17.73;;;;;;;20.51;100.00;101498.53;5046613;28;20358;-74
2022/08/25 04:11:47;;;;;;;19.98;16.65;;;;;;;20.54;100.00;101493.19;5053684;28;20035;-74
2022/08/25 04:14:13;;;;;;;18.63;16.13;;;;;;;20.53;100.00;101497.63;5036681;28;20029;-73
2022/08/25 04:16:39;;;;;;;21.83;16.05;;;;;;;20.51;100.00;101491.44;5051796;28;20025;-74
2022/08/25 04:19:11;;;;;;;19.17;16.08;;;;;;;20.51;100.00;101486.06;5054209;28;20464;-72
2022/08/25 04:21:38;;;;;;;18.83;14.82;;;;;;;20.50;100.00;101484.31;5042974;28;20136;-74
2022/08/25 04:24:05;;;;;;;21.17;15.77;;;;;;;20.49;100.00;101485.19;5044688;28;20086;-72
2022/08/25 04:26:37;;;;;;;19.02;15.07;;;;;;;20.44;100.00;101478.16;5062858;28;20072;-74
2022/08/25 04:29:05;;;;;;;17.00;15.25;;;;;;;20.41;100.00;101486.22;5035608;28;20087;-74
2022/08/25 04:31:31;;;;;;;19.25;15.85;;;;;;;20.37;100.00;101490.72;5035380;28;20057;-72
2022/08/25 04:33:56;;;;;;;16.02;14.43;;;;;;;20.37;100.00;101483.59;5050023;28;20496;-74
2022/08/25 04:36:22;;;;;;;15.15;13.55;;;;;;;20.38;100.00;101489.81;5039584;28;20043;-73
2022/08/25 04:38:48;;;;;;;17.33;13.13;;;;;;;20.38;100.00;101497.84;5052891;28;20033;-74
2022/08/25 04:41:16;;;;;;;15.43;13.77;;;;;;;20.38;100.00;101495.19;5046464;28;20109;-73
2022/08/25 04:43:43;;;;;;;15.32;13.60;;;;;;;20.36;100.00;101497.88;5054179;28;20483;-74
2022/08/25 04:46:14;;;;;;;17.75;13.18;;;;;;;20.36;100.00;101491.63;5041280;28;20033;-75
2022/08/25 04:48:40;;;;;;;14.15;12.20;;;;;;;20.34;100.00;101499.66;5035379;28;20083;-74
2022/08/25 04:51:10;;;;;;;18.80;13.98;;;;;;;20.29;100.00;101492.63;5049947;28;20449;-73
2022/08/25 04:53:36;;;;;;;16.80;13.65;;;;;;;20.24;100.00;101499.81;5040606;28;20358;-72
2022/08/25 04:56:05;;;;;;;19.33;13.32;;;;;;;20.17;100.00;101496.34;5050394;28;20101;-74
2022/08/25 04:58:31;;;;;;;18.40;13.07;;;;;;;20.11;100.00;101499.97;5035431;28;20029;-73
2022/08/25 05:01:08;;;;;;;16.48;12.77;;;;;;;20.08;100.00;101497.34;5037131;28;20022;-74
2022/08/25 05:03:34;;;;;;;18.48;11.95;;;;;;;20.04;100.00;101499.16;5047604;28;20554;-73
2022/08/25 05:05:59;;;;;;;14.85;13.02;;;;;;;20.02;100.00;101497.41;5041829;28;20022;-74
2022/08/25 05:08:25;;;;;;;19.30;12.60;;;;;;;20.01;100.00;101493.00;5040935;28;20037;-74
2022/08/25 05:10:53;;;;;;;15.52;13.25;;;;;;;20.01;100.00;101488.53;5049939;28;20086;-72
2022/08/25 05:13:27;;;;;;;16.83;13.65;;;;;;;20.02;100.00;101495.66;5054476;28;20017;-71
2022/08/25 05:15:57;;;;;;;17.00;12.50;;;;;;;20.11;100.00;101491.97;5052073;28;20071;-72
2022/08/25 05:18:26;;;;;;;17.23;11.88;;;;;;;20.13;100.00;101500.84;5054762;28;20036;-73
2022/08/25 05:20:52;;;;;;;14.82;12.82;;;;;;;20.09;100.00;101504.47;5053892;28;20057;-73
2022/08/25 05:23:20;;;;;;;15.48;12.85;;;;;;;20.10;100.00;101506.22;5055055;28;20078;-73
2022/08/25 05:25:46;;;;;;;15.48;12.18;;;;;;;20.07;100.00;101513.41;5051200;28;20026;-73
2022/08/25 05:28:11;;;;;;;14.35;11.45;;;;;;;20.08;100.00;101508.03;5047389;28;20029;-71
2022/08/25 05:30:39;;;;;;;14.52;11.65;;;;;;;20.09;100.00;101517.81;5044418;28;20530;-72
2022/08/25 05:33:05;;;;;;;15.07;12.43;;;;;;;20.09;100.00;101507.13;5050673;28;20112;-72
2022/08/25 05:35:30;;;;;;;16.58;12.65;;;;;;;20.10;100.00;101508.88;5040879;28;20083;-72
2022/08/25 05:37:56;;;;;;;14.38;11.65;;;;;;;20.13;100.00;101508.88;5045234;28;20025;-73
2022/08/25 05:40:22;;;;;;;13.48;11.30;;;;;;;20.16;100.00;101510.63;5045980;28;20063;-72
2022/08/25 05:42:47;;;;;;;19.63;12.07;;;;;;;20.20;100.00;101509.69;5043631;28;20037;-72
2022/08/25 05:45:13;;;;;;;15.90;11.57;;;;;;;20.24;100.00;101515.84;5039324;28;20155;-71
2022/08/25 05:47:38;;;;;;;12.68;11.23;;;;;;;20.26;100.00;101519.41;5041507;28;20338;-72
2022/08/25 05:50:04;;;;;;;18.20;11.38;;;;;;;20.30;100.00;101515.78;5043882;28;20083;-74
2022/08/25 05:52:30;;;;;;;16.73;11.57;;;;;;;20.34;100.00;101522.84;5043082;28;20036;-73
2022/08/25 05:54:55;;;;;;;14.30;11.00;;;;;;;20.44;100.00;101512.91;5049066;28;20111;-73
2022/08/25 05:57:20;;;;;;;13.98;10.85;;;;;;;20.50;100.00;101518.19;5043730;28;20056;-74
2022/08/25 05:59:46;;;;;;;17.85;11.40;;;;;;;20.58;100.00;101512.72;5046514;28;20500;-73
2022/08/25 06:04:57;;;;;;;12.32;10.95;;;;;;;20.66;100.00;101516.16;5042743;28;20044;-74
2022/08/25 06:07:22;;;;;;;16.60;10.77;;;;;;;20.68;100.00;101504.56;5047179;28;20412;-73
2022/08/25 06:09:47;;;;;;;16.10;10.07;;;;;;;20.74;100.00;101506.28;5034536;28;20029;-74
2022/08/25 06:12:13;;;;;;;14.60;10.45;;;;;;;20.76;100.00;101508.94;5052748;28;20025;-72
2022/08/25 06:14:39;;;;;;;12.70;9.77;;;;;;;20.78;100.00;101513.34;5052031;28;20040;-71
2022/08/25 06:17:04;;;;;;;13.80;10.18;;;;;;;20.79;100.00;101504.41;5044678;28;20025;-73
2022/08/25 06:19:30;;;;;;;14.05;9.70;;;;;;;20.83;100.00;101506.13;5041713;28;20113;-73
2022/08/25 06:21:57;;;;;;;15.25;9.93;;;;;;;20.85;100.00;101498.97;5036443;28;20167;-73
2022/08/25 06:24:24;;;;;;;15.13;10.95;;;;;;;20.90;100.00;101501.56;5041546;28;20052;-72
2022/08/25 06:26:50;;;;;;;13.55;10.35;;;;;;;20.88;100.00;101493.56;5046375;28;20021;-72
2022/08/25 06:29:15;;;;;;;12.80;9.60;;;;;;;20.91;100.00;101494.44;5049781;28;20031;-72
2022/08/25 06:31:41;;;;;;;14.30;10.02;;;;;;;20.96;100.00;101492.53;5044854;28;20025;-72
2022/08/25 06:34:06;;;;;;;12.75;8.52;;;;;;;21.01;100.00;101498.72;5043169;28;20025;-72
2022/08/25 06:36:33;;;;;;;11.25;9.68;;;;;;;21.04;100.00;101499.56;5040809;28;20033;-73
2022/08/25 06:38:59;;;;;;;15.52;9.57;;;;;;;21.09;100.00;101501.28;5043079;28;20032;-71
2022/08/25 06:41:24;;;;;;;15.30;10.68;;;;;;;21.16;100.00;101506.50;5041619;28;20408;-73
2022/08/25 06:43:50;;;;;;;14.77;9.15;;;;;;;21.27;100.00;101505.41;5046613;28;20034;-72
2022/08/25 06:46:22;;;;;;;18.70;9.20;;;;;;;21.38;100.00;101506.13;5045619;28;20056;-72
2022/08/25 06:48:48;;;;;;;11.73;9.80;;;;;;;21.51;100.00;101507.69;5039927;28;20034;-72
2022/08/25 06:51:16;;;;;;;12.45;9.20;;;;;;;21.64;100.00;101512.84;5032290;28;20025;-73
2022/08/25 06:53:43;;;;;;;26.63;10.27;;;;;;;21.74;100.00;101509.03;5038513;28;20033;-73
2022/08/25 06:56:09;;;;;;;11.82;8.70;;;;;;;21.87;100.00;101513.25;5043398;28;20029;-74
2022/08/25 06:58:35;;;;;;;13.07;9.88;;;;;;;21.94;100.00;101513.16;5042611;28;20040;-73
2022/08/25 07:01:12;;;;;;;20.05;9.48;;;;;;;22.01;100.00;101504.94;5041236;28;20492;-74
2022/08/25 07:03:37;;;;;;;17.85;9.98;;;;;;;22.03;100.00;101497.75;5067156;28;20025;-75
2022/08/25 07:06:03;;;;;;;14.93;8.65;;;;;;;22.08;100.00;101499.44;5052040;28;20043;-72
2022/08/25 07:08:30;;;;;;;16.08;10.15;;;;;;;22.08;100.00;101500.31;5062610;28;20048;-72
2022/08/25 07:10:56;;;;;;;16.23;9.40;;;;;;;22.15;100.00;101499.31;5040671;28;20033;-72
2022/08/25 07:13:21;;;;;;;14.07;9.07;;;;;;;22.20;100.00;101494.69;5047788;28;20025;-72
2022/08/25 07:15:46;;;;;;;15.57;8.48;;;;;;;22.29;100.00;101508.81;5045027;28;20033;-73
2022/08/25 07:18:12;;;;;;;11.88;8.32;;;;;;;22.36;100.00;101500.66;5048817;28;20584;-74
2022/08/25 07:20:38;;;;;;;14.68;8.68;;;;;;;22.43;100.00;101498.72;5034329;28;20083;-72
2022/08/25 07:23:04;;;;;;;14.15;8.68;;;;;;;22.50;100.00;101499.47;5033053;28;20420;-71
2022/08/25 07:25:30;;;;;;;9.35;8.30;;;;;;;22.56;100.00;101500.19;5052739;28;20029;-72
2022/08/25 07:27:56;;;;;;;10.93;8.68;;;;;;;22.62;100.00;101500.97;5076160;28;20028;-72
2022/08/25 07:30:22;;;;;;;14.00;7.70;;;;;;;22.69;100.00;101502.59;5076368;28;20059;-72
2022/08/25 07:32:47;;;;;;;10.30;6.60;;;;;;;22.79;100.00;101503.25;5048769;28;20088;-72
2022/08/25 07:35:16;;;;;;;9.07;6.75;;;;;;;22.86;100.00;101499.53;5042820;28;20028;-72
2022/08/25 07:37:46;;;;;;;12.38;7.43;;;;;;;22.97;100.00;101501.94;5054940;28;20040;-72
2022/08/25 07:40:16;;;;;;;13.85;7.47;;;;;;;23.09;100.00;101498.94;5055341;28;20036;-71
2022/08/25 07:42:43;;;;;;;8.82;5.72;;;;;;;23.17;100.00;101505.03;5053394;28;20029;-71
2022/08/25 07:45:10;;;;;;;11.10;7.85;;;;;;;23.28;100.00;101503.84;5041568;28;20029;-71
2022/08/25 07:47:36;;;;;;;10.95;7.05;;;;;;;23.37;100.00;101503.63;5052923;28;20025;-72
2022/08/25 07:50:02;;;;;;;12.55;6.82;;;;;;;23.45;100.00;101504.31;5046359;28;20025;-71
2022/08/25 07:52:27;;;;;;;12.50;6.13;;;;;;;23.57;100.00;101497.72;5051813;28;20040;-71
2022/08/25 07:54:53;;;;;;;13.50;6.72;;;;;;;23.65;100.00;101502.91;5055739;28;20020;-70
2022/08/25 07:57:21;;;;;;;11.52;7.28;;;;;;;23.74;100.00;101494.59;5056002;28;20469;-71
2022/08/25 07:59:46;;;;;;;11.60;6.30;;;;;;;23.86;100.00;101504.06;5055757;28;20029;-70
2022/08/25 08:02:12;;;;;;;12.48;6.32;;;;;;;23.94;100.00;101502.09;5046145;28;20045;-71
2022/08/25 08:04:38;;;;;;;8.65;5.30;;;;;;;24.04;100.00;101508.97;5036020;28;20029;-71
2022/08/25 08:07:05;;;;;;;9.98;5.93;;;;;;;24.15;100.00;101503.28;5035427;28;20026;-71
2022/08/25 08:09:30;;;;;;;9.07;5.85;;;;;;;24.30;100.00;101509.13;5035817;28;20033;-71
2022/08/25 08:11:56;;;;;;;12.18;5.78;;;;;;;24.40;100.00;101510.59;5035692;28;20478;-70
2022/08/25 08:14:22;;;;;;;7.60;4.93;;;;;;;24.53;100.00;101505.72;5035893;28;20037;-70
2022/08/25 08:16:48;;;;;;;11.45;5.45;;;;;;;24.66;100.00;101506.25;5039404;28;20036;-71
2022/08/25 08:19:14;;;;;;;14.05;6.15;;;;;;;24.78;100.00;101510.34;5045462;28;20443;-70
2022/08/25 08:21:39;;;;;;;9.52;6.05;;;;;;;24.85;100.00;101510.13;5049287;28;20032;-72
2022/08/25 08:24:05;;;;;;;11.00;5.28;;;;;;;24.96;100.00;101512.47;5044147;28;20025;-71
2022/08/25 08:26:31;;;;;;;15.07;5.53;;;;;;;25.02;100.00;101504.16;5056431;28;20464;-70
2022/08/25 08:28:56;;;;;;;10.20;5.22;;;;;;;25.15;99.98;101509.13;5055110;28;20423;-70
2022/08/25 08:31:25;;;;;;;7.63;4.85;;;;;;;25.27;97.83;101513.22;5055096;28;20058;-70
2022/08/25 08:33:52;;;;;;;6.32;4.32;;;;;;;25.34;98.06;101510.31;5044666;28;20025;-71
2022/08/25 08:36:18;;;;;;;9.55;4.18;;;;;;;25.47;97.30;101508.03;5034810;28;20025;-72
2022/08/25 08:38:45;;;;;;;6.47;4.15;;;;;;;25.62;96.44;101516.53;5033720;28;20535;-73
2022/08/25 08:44:45;;;;;;;11.82;3.40;;;;;;;26.02;87.13;101520.47;5035234;28;20495;-71
2022/08/25 08:47:32;;;;;;;5.50;3.20;;;;;;;26.11;85.29;101509.34;5035120;28;20059;-72
2022/08/25 08:50:23;;;;;;;6.40;3.55;;;;;;;26.19;84.73;101520.72;5034748;28;20025;-72
2022/08/25 08:52:56;;;;;;;9.57;3.30;;;;;;;26.31;84.13;101513.09;5034931;28;20030;-72
2022/08/25 08:55:40;;;;;;;;;;;;;;;26.35;83.96;101515.63;5044069;28;20025;-73
2022/08/25 08:58:16;;;;;;;4.63;2.40;;;;;;;26.50;82.15;101507.88;5054603;28;20344;-72
2022/08/25 09:00:47;;;;;;;5.45;2.97;;;;;;;26.58;80.66;101512.00;5048287;28;20025;-71
2022/08/25 09:03:21;;;;;;;6.15;2.95;;;;;;;26.75;79.82;101507.75;5034916;28;20110;-72
2022/08/25 09:05:50;;;;;;;10.43;2.65;;;;;;;26.86;77.05;101508.22;5042534;28;20032;-72
2022/08/25 09:08:16;;;;;;;5.00;2.80;;;;;;;26.96;76.41;101500.63;5052539;28;20053;-72
2022/08/25 09:10:59;;;;;;;4.95;2.63;;;;;;;27.19;77.71;101507.75;5034405;28;20033;-72
2022/08/25 09:14:01;;;;;;;4.97;2.45;;;;;;;27.45;76.24;101503.06;5034070;28;20032;-72
2022/08/25 09:16:55;;;;;;;5.78;2.60;;;;;;;27.59;70.92;101502.44;5049031;28;20037;-70
2022/08/25 09:19:42;;;;;;;4.53;2.42;;;;;;;27.64;67.05;101502.25;5051601;28;20055;-72
2022/08/25 09:22:22;;;;;;;9.73;3.28;;;;;;;27.82;67.45;101505.94;5046226;28;20478;-71
2022/08/25 09:25:19;;;;;;;5.60;2.58;;;;;;;28.06;64.67;101493.16;5056416;28;20024;-72
2022/08/25 09:27:47;;;;;;;4.78;2.03;;;;;;;28.23;62.58;101501.34;5072324;28;20025;-70
2022/08/25 09:30:17;;;;;;;2.33;1.98;;;;;;;28.32;62.64;101496.44;5053884;28;20068;-72
2022/08/25 09:32:52;;;;;;;3.40;2.25;;;;;;;28.42;60.21;101506.75;5054027;28;20029;-71
2022/08/25 09:35:26;;;;;;;4.82;2.45;;;;;;;28.41;61.41;101504.13;5037641;28;20025;-72
2022/08/25 09:37:59;;;;;;;5.05;2.30;;;;;;;28.44;63.13;101509.41;5033755;28;20037;-71
2022/08/25 09:40:26;;;;;;;;;;;;;;;28.45;63.21;101503.03;5036301;28;20025;-72
2022/08/25 09:42:55;;;;;;;7.60;2.03;;;;;;;28.53;62.19;101490.00;5033713;28;20351;-71
2022/08/25 09:45:39;;;;;;;5.95;2.30;;;;;;;28.56;63.44;101487.13;5033664;28;20040;-71
2022/08/25 09:48:27;;;;;;;6.55;2.88;;;;;;;28.69;60.86;101489.25;5033182;28;20031;-71
2022/08/25 09:51:01;;;;;;;6.05;2.60;;;;;;;28.79;60.63;101493.28;5034970;28;20032;-71
2022/08/25 09:53:28;;;;;;;7.80;2.45;;;;;;;28.87;60.46;101485.66;5033705;28;20488;-72
2022/08/25 09:56:03;;;;;;;4.38;2.08;;;;;;;28.94;61.11;101492.50;5044778;28;20017;-70
2022/08/25 09:58:29;;;;;;;6.80;2.58;;;;;;;28.98;57.99;101493.25;5053142;28;20047;-71
2022/08/25 10:01:15;;;;;;;6.07;2.17;;;;;;;29.08;58.33;101485.50;5034919;28;20025;-71
2022/08/25 10:03:58;;;;;;;3.45;2.10;;;;;;;29.33;55.01;101486.97;5033392;28;20033;-72
2022/08/25 10:06:26;;;;;;;6.68;2.35;;;;;;;29.56;53.47;101489.34;5036744;28;20018;-72
2022/08/25 10:08:56;;;;;;;6.45;2.30;;;;;;;29.60;53.01;101479.22;5053202;28;20386;-72
2022/08/25 10:11:44;;;;;;;11.45;2.40;;;;;;;29.80;53.29;101474.56;5039874;28;20037;-72
2022/08/25 10:14:27;;;;;;;4.18;2.28;;;;;;;29.99;53.26;101488.88;5033550;28;20052;-71
2022/08/25 10:17:12;;;;;;;5.38;2.40;;;;;;;29.97;50.53;101479.09;5033102;28;20071;-72
2022/08/25 10:19:38;;;;;;;3.67;2.22;;;;;;;30.13;51.40;101470.97;5043533;28;20442;-72
2022/08/25 10:22:10;;;;;;;6.38;2.20;;;;;;;30.28;49.16;101470.09;5050248;28;20059;-71
2022/08/25 10:24:36;;;;;;;9.75;2.20;;;;;;;30.41;50.39;101476.59;5054323;28;20377;-72
2022/08/25 10:27:34;;;;;;;7.22;2.38;;;;;;;30.60;50.47;101470.13;5038302;28;20041;-71
2022/08/25 10:30:07;;;;;;;5.40;2.35;;;;;;;30.89;50.03;101471.13;5033129;28;20496;-72
2022/08/25 10:32:51;;;;;;;3.20;2.08;;;;;;;31.08;48.46;101460.06;5046885;28;20029;-72
2022/08/25 10:35:25;;;;;;;4.75;2.20;;;;;;;31.21;48.98;101460.16;5060048;28;20102;-71
2022/08/25 10:38:07;;;;;;;9.18;2.38;;;;;;;31.38;47.46;101466.44;5073227;28;20021;-72
2022/08/25 10:40:39;;;;;;;;;;;;;;;31.36;47.73;101455.63;5073513;28;20394;-72
2022/08/25 10:43:17;;;;;;;4.28;2.20;;;;;;;31.38;47.16;101463.72;5054098;28;19916;-72
2022/08/25 10:45:57;;;;;;;7.28;2.33;;;;;;;31.40;48.52;101457.22;5045365;28;20037;-72
2022/08/25 10:49:02;;;;;;;6.32;2.15;;;;;;;31.44;48.07;101457.88;5034070;28;20032;-71
2022/08/25 10:51:36;;;;;;;3.95;2.22;;;;;;;31.56;46.81;101446.25;5033220;28;20037;-72
2022/08/25 10:54:38;;;;;;;3.53;2.25;;;;;;;31.72;46.90;101442.59;5046589;28;20033;-72
2022/08/25 10:57:28;;;;;;;12.90;2.70;;;;;;;31.93;47.30;101441.22;5032839;28;20018;-72
2022/08/25 11:00:07;;;;;;;5.25;2.50;;;;;;;32.08;47.81;101441.19;5039359;28;20017;-71
2022/08/25 11:02:51;;;;;;;4.10;2.25;;;;;;;32.20;44.21;101440.41;5050283;28;20021;-71
2022/08/25 11:05:47;;;;;;;5.45;2.38;;;;;;;32.38;44.31;101435.63;5041128;28;20083;-72
2022/08/25 11:08:28;;;;;;;6.78;2.42;;;;;;;32.64;42.57;101434.84;5047764;28;20060;-72
2022/08/25 11:11:03;;;;;;;7.82;2.47;;;;;;;32.55;39.75;101431.75;5047752;28;20096;-72
2022/08/25 11:13:37;;;;;;;11.10;2.60;;;;;;;32.61;42.00;101441.38;5067842;28;20024;-72
2022/08/25 11:16:10;;;;;;;6.00;2.03;;;;;;;32.90;42.53;101435.84;5056477;28;20503;-72
2022/08/25 11:18:43;;;;;;;4.40;2.03;;;;;;;33.03;38.88;101433.13;5071053;28;20796;-72
2022/08/25 11:21:14;;;;;;;11.07;2.97;;;;;;;33.24;39.81;101433.50;5064207;28;20104;-72
2022/08/25 11:23:48;;;;;;;5.95;2.20;;;;;;;33.42;38.29;101434.06;5050844;28;20052;-72
2022/08/25 11:26:23;;;;;;;4.97;2.15;;;;;;;33.37;37.91;101436.22;5051368;28;20036;-73
2022/08/25 11:29:01;;;;;;;4.18;2.20;;;;;;;33.31;35.59;101428.50;5041048;28;20080;-72